• Join FlightAware (Why Join?)
  • Login
  • US Flag 
04:10PM EDT


 

Airport Tracker/Info


-or-


 

Live Flight TrackerFlight Track Log ✈ DAL3860 ✈ 13-Apr-2013 ✈ KCLE - KMSP

Flight Track Log - Related Links

Times and Time Zones

All times are in EDT time to prevent confusion due to time zone crossing. See the DAL3860 flight status page for this flight to view local times or setup timezone preferences in your user account.

Time Position Orientation Groundspeed Altitude Reporting Facility
EDT Latitude Longitude Course Direction KTS MPH feet Rate Location/Type
10:21AM 41.3939 -81.8814 269° West 158 182 1,900  Level Cleveland Center
10:22AM 41.3936 -81.9061 269° West 166 191 2,700 1,980 Climbing Cleveland Center
10:23AM 41.3967 -81.9947 273° West 188 216 5,500 2,340 Climbing Cleveland Center
10:24AM 41.3978 -82.0806 271° West 221 254 8,300 2,220 Climbing Cleveland Center
10:25AM 41.3883 -82.1689 262° West 239 275 10,000 1,200 Climbing Cleveland Center
10:26AM 41.3658 -82.2708 254° West 272 313 10,800 1,800 Climbing Cleveland Center
10:27AM 41.3414 -82.3697 252° West 285 328 13,700 2,280 Climbing Cleveland Center
10:28AM 41.3108 -82.4656 247° West 290 334 15,400 1,620 Climbing Cleveland Center
10:29AM 41.2611 -82.5636 236° Southwest 290 334 17,000 1,620 Climbing Cleveland Center
10:30AM 41.2178 -82.6561 238° Southwest 303 349 18,700 1,620 Climbing Cleveland Center
10:31AM 41.2303 -82.7697 278° West 288 331 20,300 1,560 Climbing Cleveland Center
10:32AM 41.2428 -82.8808 279° West 304 350 21,900 1,440 Climbing Cleveland Center
10:33AM 41.2550 -82.9917 278° West 309 356 23,200 1,140 Climbing Cleveland Center
10:34AM 41.2653 -83.0997 277° West 309 356 24,200 900 Climbing Cleveland Center
10:35AM 41.2731 -83.2133 275° West 309 356 25,000 720 Climbing Cleveland Center
10:36AM 41.2872 -83.3244 280° West 314 361 25,700 600 Climbing Cleveland Center
10:37AM 41.2989 -83.4439 277° West 314 361 26,300 540 Climbing Cleveland Center
10:38AM 41.3103 -83.5633 277° West 319 367 26,800 480 Climbing Cleveland Center
10:39AM 41.3197 -83.6825 276° West 324 373 27,300 480 Climbing Cleveland Center
10:41AM 41.3522 -83.9603 279° West 334 384 28,500 480 Climbing Chicago Center
10:42AM 41.3622 -84.0856 276° West 340 391 29,000 480 Climbing Chicago Center
10:43AM 41.3742 -84.2075 277° West 335 386 29,500 480 Climbing Chicago Center
10:44AM 41.3844 -84.3314 276° West 336 387 30,000 240 Climbing Chicago Center
10:45AM 41.3961 -84.4542 277° West 338 389 30,000  Level Chicago Center
10:46AM 41.4072 -84.5800 277° West 343 395 30,000  Level Chicago Center
10:47AM 41.4175 -84.7086 276° West 349 402 30,000  Level Chicago Center
10:48AM 41.4311 -84.8639 277° West 352 405 30,000  Level Chicago Center
10:49AM 41.4425 -84.9961 277° West 358 412 30,000  Level Chicago Center
10:50AM 41.4603 -85.1292 280° West 366 421 30,000  Level Chicago Center
10:51AM 41.5219 -85.2456 305° West 387 445 30,000  Level Chicago Center
10:52AM 41.5861 -85.3625 306° West 387 445 30,000  Level Chicago Center
10:54AM 41.6506 -85.4800 306° West 385 443 30,000  Level Chicago Center
10:55AM 41.7169 -85.6028 306° West 386 444 30,000  Level Chicago Center
10:56AM 41.7803 -85.7189 306° West 386 444 30,000  Level Chicago Center
10:57AM 41.8433 -85.8356 306° West 386 444 30,000  Level Chicago Center
10:58AM 41.9069 -85.9514 306° West 387 445 30,000  Level Chicago Center
10:59AM 41.9697 -86.0694 306° West 386 444 30,000  Level Chicago Center
11:00AM 42.0333 -86.1867 306° West 389 448 30,000  Level Chicago Center
11:01AM 42.1081 -86.3275 306° West 388 447 30,000  Level Chicago Center
11:02AM 42.1708 -86.4472 305° West 389 448 30,000  Level Chicago Center
11:03AM 42.2342 -86.5661 306° West 389 448 30,000  Level Chicago Center
11:04AM 42.3033 -86.6978 305° West 394 453 30,000  Level Chicago Center
11:05AM 42.3667 -86.8167 306° West 393 452 30,000  Level Chicago Center
11:06AM 42.4283 -86.9353 305° West 389 448 30,000  Level Chicago Center
11:07AM 42.4894 -87.0542 305° West 388 447 30,000  Level Chicago Center
11:08AM 42.5506 -87.1708 305° West 385 443 30,000  Level Chicago Center
11:09AM 42.6189 -87.3044 305° West 392 451 30,000  Level Chicago Center
11:10AM 42.6789 -87.4206 305° West 391 450 30,000  Level Chicago Center
11:11AM 42.7411 -87.5422 305° West 389 448 30,000  Level Chicago Center
11:12AM 42.8036 -87.6653 305° West 394 453 30,000  Level Chicago Center
11:13AM 42.8775 -87.8097 305° West 397 457 30,000  Level Chicago Center
11:14AM 42.9408 -87.9356 305° West 399 459 30,000  Level Chicago Center
11:15AM 43.0047 -88.0614 305° West 402 463 30,000  Level Chicago Center
11:16AM 43.0683 -88.1881 305° West 404 465 30,000  Level Chicago Center
11:17AM 43.1336 -88.3125 306° West 400 460 30,000  Level Chicago Center
11:18AM 43.2047 -88.4328 309° West 403 464 30,000  Level Chicago Center
11:19AM 43.2744 -88.5522 309° West 396 456 30,000  Level Chicago Center
11:20AM 43.3450 -88.6736 309° West 400 460 30,000  Level Chicago Center
11:21AM 43.4144 -88.7942 308° West 396 456 30,000  Level Chicago Center
11:22AM 43.4839 -88.9142 309° West 397 457 30,000  Level Chicago Center
11:23AM 43.5628 -89.0519 308° West 392 451 30,000  Level Chicago Center
11:24AM 43.6317 -89.1714 309° West 395 455 30,000  Level Chicago Center
11:25AM 43.6539 -89.2114 308° West 395 455 30,000  Level Minneapolis Center
11:26AM 43.7214 -89.3303 308° West 394 453 30,000  Level Minneapolis Center
11:27AM 43.7889 -89.4511 308° West 395 455 30,000  Level Minneapolis Center
11:28AM 43.8578 -89.5697 309° West 396 456 30,000  Level Minneapolis Center
11:29AM 43.9242 -89.6906 307° West 395 455 30,000  Level Minneapolis Center
11:30AM 43.9922 -89.8114 308° West 396 456 30,000  Level Minneapolis Center
11:31AM 44.0594 -89.9322 308° West 395 455 30,000  Level Minneapolis Center
11:32AM 44.1378 -90.0733 308° West 394 453 30,000  Level Minneapolis Center
11:33AM 44.1947 -90.2033 301° West 394 453 30,000  Level Minneapolis Center
11:34AM 44.2500 -90.3353 300° West 395 455 30,000  Level Minneapolis Center
11:35AM 44.3056 -90.4672 301° West 394 453 30,000  Level Minneapolis Center
11:36AM 44.3611 -90.5967 301° West 390 449 30,000  Level Minneapolis Center
11:37AM 44.4167 -90.7294 300° West 393 452 30,000  Level Minneapolis Center
11:38AM 44.4711 -90.8614 300° West 392 451 30,000  Level Minneapolis Center
11:39AM 44.5331 -91.0086 301° West 390 449 30,000 -240 Level Minneapolis Center
11:40AM 44.5872 -91.1400 300° West 392 451 29,600 -1,320 Descending Minneapolis Center
11:41AM 44.6386 -91.2650 300° West 380 437 27,400 -2,100 Descending Minneapolis Center
11:42AM 44.6892 -91.3864 300° West 367 422 25,300 -2,100 Descending Minneapolis Center
11:43AM 44.7392 -91.5125 299° West 369 425 23,200 -2,100 Descending Minneapolis Center
11:44AM 44.7903 -91.6400 299° West 374 430 21,100 -2,100 Descending Minneapolis Center
11:45AM 44.8422 -91.7647 300° West 373 429 19,000 -2,280 Descending Minneapolis Center
11:46AM 44.8961 -91.8772 304° West 362 417 17,000 -2,580 Descending FAA TRACON SMA TRACON (SMA)
11:46AM 44.9144 -91.9244 299° West 360 414 16,200 -2,100 Descending FAA TRACON SMA TRACON (SMA)
11:47AM 44.9289 -91.9619 299° West 359 413 15,600 -1,800 Descending FAA TRACON SMA TRACON (SMA)
11:47AM 44.9439 -91.9992 300° West 355 409 15,000 -1,980 Descending FAA TRACON SMA TRACON (SMA)
11:47AM 44.9600 -92.0450 296° West 348 400 14,300 -1,980 Descending FAA TRACON SMA TRACON (SMA)
11:48AM 44.9744 -92.0817 299° West 345 397 13,700 -1,800 Descending FAA TRACON SMA TRACON (SMA)
11:48AM 44.9889 -92.1181 299° West 344 396 13,100 -1,980 Descending FAA TRACON SMA TRACON (SMA)
11:48AM 45.0064 -92.1628 299° West 344 396 12,400 -2,040 Descending FAA TRACON SMA TRACON (SMA)
11:49AM 45.0186 -92.1983 296° West 339 390 11,800 -1,680 Descending FAA TRACON SMA TRACON (SMA)
11:49AM 45.0331 -92.2342 300° West 338 389 11,300 -1,200 Descending FAA TRACON SMA TRACON (SMA)
11:49AM 45.0497 -92.2783 298° West 334 384 11,000 -480 Descending FAA TRACON SMA TRACON (SMA)
11:50AM 45.0556 -92.3181 282° West 338 389 11,000 -480 Level FAA TRACON SMA TRACON (SMA)
11:50AM 45.0536 -92.3569 266° West 329 379 10,700 -900 Descending FAA TRACON SMA TRACON (SMA)
11:50AM 45.0428 -92.4000 250° West 306 352 10,400 -900 Descending FAA TRACON SMA TRACON (SMA)
11:51AM 45.0300 -92.4297 239° Southwest 293 337 10,100 -900 Descending FAA TRACON SMA TRACON (SMA)
11:51AM 45.0172 -92.4558 235° Southwest 276 318 9,800 -1,080 Descending FAA TRACON SMA TRACON (SMA)
11:51AM 45.0019 -92.4875 236° Southwest 259 298 9,400 -1,080 Descending FAA TRACON SMA TRACON (SMA)
11:52AM 44.9886 -92.5114 232° Southwest 249 287 9,100 -1,080 Descending FAA TRACON SMA TRACON (SMA)
11:52AM 44.9753 -92.5414 238° Southwest 241 277 8,700 -1,080 Descending FAA TRACON SMA TRACON (SMA)
11:52AM 44.9625 -92.5653 233° Southwest 242 278 8,400 -1,080 Descending FAA TRACON SMA TRACON (SMA)
11:53AM 44.9519 -92.5900 239° Southwest 243 280 8,000 -1,080 Descending FAA TRACON SMA TRACON (SMA)
11:53AM 44.9381 -92.6147 232° Southwest 250 288 7,700 -1,080 Descending FAA TRACON SMA TRACON (SMA)
11:53AM 44.9228 -92.6461 236° Southwest 256 295 7,300 -1,080 Descending FAA TRACON SMA TRACON (SMA)
11:54AM 44.9097 -92.6719 234° Southwest 259 298 7,000 -480 Descending FAA TRACON SMA TRACON (SMA)
11:54AM 44.8967 -92.6978 235° Southwest 263 303 7,000  Level FAA TRACON SMA TRACON (SMA)
11:54AM 44.8806 -92.7311 236° Southwest 264 304 7,000 -300 Level FAA TRACON SMA TRACON (SMA)
11:55AM 44.8633 -92.7639 233° Southwest 270 311 6,800 -720 Descending FAA TRACON SMA TRACON (SMA)
11:55AM 44.8511 -92.7900 237° Southwest 265 305 6,500 -960 Descending FAA TRACON SMA TRACON (SMA)
11:55AM 44.8378 -92.8164 235° Southwest 267 307 6,200 -840 Descending FAA TRACON SMA TRACON (SMA)
11:56AM 44.8244 -92.8428 235° Southwest 266 306 6,000 -780 Descending FAA TRACON SMA TRACON (SMA)
11:56AM 44.8108 -92.8692 234° Southwest 267 307 5,700 -1,080 Descending FAA TRACON SMA TRACON (SMA)
11:56AM 44.7947 -92.9019 235° Southwest 267 307 5,300 -900 Descending FAA TRACON SMA TRACON (SMA)
11:57AM 44.7839 -92.9292 241° Southwest 265 305 5,100 -900 Descending FAA TRACON SMA TRACON (SMA)
11:57AM 44.7833 -92.9592 269° West 259 298 4,700 -1,200 Descending FAA TRACON SMA TRACON (SMA)
11:57AM 44.7925 -92.9911 292° West 236 272 4,300 -1,080 Descending FAA TRACON SMA TRACON (SMA)
11:58AM 44.8011 -93.0125 300° West 212 244 4,000 -900 Descending FAA TRACON SMA TRACON (SMA)
11:58AM 44.8100 -93.0308 304° West 190 219 3,700 -1,080 Descending FAA TRACON SMA TRACON (SMA)
11:58AM 44.8208 -93.0517 306° West 171 197 3,300 -1,080 Descending FAA TRACON SMA TRACON (SMA)
11:59AM 44.8281 -93.0692 300° West 167 192 3,000 -900 Descending FAA TRACON SMA TRACON (SMA)
11:59AM 44.8353 -93.0872 299° West 171 197 2,700 -1,080 Descending FAA TRACON SMA TRACON (SMA)
11:59AM 44.8439 -93.1078 301° West 162 186 2,300 -1,080 Descending FAA TRACON SMA TRACON (SMA)
12:00PM 44.8503 -93.1228 301° West 150 173 2,000 -720 Descending FAA TRACON SMA TRACON (SMA)
12:00PM 44.8581 -93.1394 303° West 134 154 1,800 -720 Descending FAA TRACON SMA TRACON (SMA)
12:00PM 44.8639 -93.1539 300° West 135 155 1,500 -840 Descending FAA TRACON SMA TRACON (SMA)
12:01PM 44.8697 -93.1678 301° West 135 155 1,300 -840 Descending FAA TRACON SMA TRACON (SMA)
12:01PM 44.8761 -93.1817 303° West 135 155 1,000 -900 Descending FAA TRACON SMA TRACON (SMA)